Time;durP1;ratioP1;P1;durP2;ratioP2;P2;SDS_P1;SDS_P2;PMS_P1;PMS_P2;Temp;Humidity;BMP_temperature;BMP_pressure;BME280_temperature;BME280_humidity;BME280_pressure;Samples;Min_cycle;Max_cycle;Signal;HPM_P1;HPM_P2
2021/04/17 00:01:54;;;;;;;4.00;2.33;;;;;;;;;;5083890;28;20199;-60
2021/04/17 00:04:21;;;;;;;4.87;2.90;;;;;;;;;;5064999;28;20683;-59
2021/04/17 00:06:47;;;;;;;3.10;2.60;;;;;;;;;;5089949;28;20274;-60
2021/04/17 00:09:15;;;;;;;6.07;3.23;;;;;;;;;;5073030;28;20229;-60
2021/04/17 00:11:41;;;;;;;4.00;2.60;;;;;;;;;;5089466;28;20180;-60
2021/04/17 00:14:09;;;;;;;4.77;2.73;;;;;;;;;;5088896;28;20179;-60
2021/04/17 00:16:35;;;;;;;3.77;2.67;;;;;;;;;;5089379;28;20252;-60
2021/04/17 00:19:01;;;;;;;3.17;2.87;;;;;;;;;;5057540;28;20214;-60
2021/04/17 00:21:27;;;;;;;4.67;2.57;;;;;;;;;;5079661;28;20236;-60
2021/04/17 00:23:54;;;;;;;3.00;2.53;;;;;;;;;;5071671;28;20188;-61
2021/04/17 00:26:20;;;;;;;2.40;2.20;;;;;;;;;;5064606;28;20172;-60
2021/04/17 00:28:46;;;;;;;2.90;2.50;;;;;;;;;;5081587;28;20179;-59
2021/04/17 00:31:12;;;;;;;3.43;2.63;;;;;;;;;;5069150;28;20224;-60
2021/04/17 00:33:39;;;;;;;5.83;2.70;;;;;;;;;;5083926;28;20184;-60
2021/04/17 00:36:05;;;;;;;3.13;2.27;;;;;;;;;;5085642;28;20264;-60
2021/04/17 00:38:31;;;;;;;4.57;2.27;;;;;;;;;;5084507;28;20173;-60
2021/04/17 00:40:59;;;;;;;4.70;2.90;;;;;;;;;;5083870;28;20686;-59
2021/04/17 00:43:25;;;;;;;3.57;2.77;;;;;;;;;;5069544;28;20207;-60
2021/04/17 00:45:51;;;;;;;3.50;2.43;;;;;;;;;;5082997;28;20169;-60
2021/04/17 00:48:17;;;;;;;4.03;2.40;;;;;;;;;;5084562;28;20169;-60
2021/04/17 00:50:43;;;;;;;3.80;2.20;;;;;;;;;;5078510;28;20272;-60
2021/04/17 00:53:09;;;;;;;3.57;2.60;;;;;;;;;;5090933;28;20251;-60
2021/04/17 00:55:36;;;;;;;2.90;2.60;;;;;;;;;;5089407;28;20266;-60
2021/04/17 00:58:03;;;;;;;2.47;2.00;;;;;;;;;;5089215;28;20266;-60
2021/04/17 01:00:29;;;;;;;3.50;2.30;;;;;;;;;;5087635;28;20196;-60
2021/04/17 01:03:15;;;;;;;2.17;1.97;;;;;;;;;;5064956;28;20665;-59
2021/04/17 01:05:42;;;;;;;3.33;2.27;;;;;;;;;;5087718;28;20226;-60
2021/04/17 01:08:11;;;;;;;2.37;1.90;;;;;;;;;;5087911;28;20251;-60
2021/04/17 01:10:42;;;;;;;3.03;2.40;;;;;;;;;;5076645;28;20195;-59
2021/04/17 01:13:09;;;;;;;2.30;1.90;;;;;;;;;;5080894;28;20295;-59
2021/04/17 01:15:36;;;;;;;2.30;1.93;;;;;;;;;;5090005;28;20229;-59
2021/04/17 01:18:03;;;;;;;2.37;2.17;;;;;;;;;;5071959;28;20202;-60
2021/04/17 01:20:48;;;;;;;3.20;2.20;;;;;;;;;;5059132;28;20215;-63
2021/04/17 01:23:33;;;;;;;3.23;2.33;;;;;;;;;;5087768;28;20595;-60
2021/04/17 01:25:59;;;;;;;2.20;1.90;;;;;;;;;;5067328;28;20543;-60
2021/04/17 01:28:26;;;;;;;3.37;2.27;;;;;;;;;;5088787;28;20171;-61
2021/04/17 01:30:53;;;;;;;3.07;1.70;;;;;;;;;;5082891;28;20230;-60
2021/04/17 01:33:21;;;;;;;3.03;2.10;;;;;;;;;;5083441;28;20198;-60
2021/04/17 01:35:47;;;;;;;2.27;1.80;;;;;;;;;;5070258;28;20183;-60
2021/04/17 01:38:22;;;;;;;3.60;2.20;;;;;;;;;;5089835;28;20175;-63
2021/04/17 01:40:49;;;;;;;2.23;1.90;;;;;;;;;;5065613;28;20203;-60
2021/04/17 01:43:16;;;;;;;3.33;2.17;;;;;;;;;;5073378;28;20176;-60
2021/04/17 01:45:43;;;;;;;2.43;2.10;;;;;;;;;;5075882;28;20187;-60
2021/04/17 01:48:10;;;;;;;3.70;2.03;;;;;;;;;;5072304;28;20163;-60
2021/04/17 01:50:36;;;;;;;2.20;2.00;;;;;;;;;;5067598;28;20698;-60
2021/04/17 01:53:03;;;;;;;2.60;2.20;;;;;;;;;;5084044;28;20180;-59
2021/04/17 01:55:34;;;;;;;2.43;2.00;;;;;;;;;;5080505;28;20181;-61
2021/04/17 01:58:01;;;;;;;2.20;1.63;;;;;;;;;;5075734;28;20184;-60
2021/04/17 02:00:27;;;;;;;4.00;2.03;;;;;;;;;;5058268;28;20196;-60
2021/04/17 02:02:53;;;;;;;3.50;2.20;;;;;;;;;;5080622;28;20179;-60
2021/04/17 02:05:19;;;;;;;2.70;2.03;;;;;;;;;;5088919;28;20698;-60
2021/04/17 02:07:45;;;;;;;2.67;1.70;;;;;;;;;;5089585;28;20176;-60
2021/04/17 02:10:12;;;;;;;2.77;1.87;;;;;;;;;;5082159;28;20172;-60
2021/04/17 02:12:38;;;;;;;2.73;2.13;;;;;;;;;;5074049;28;20250;-60
2021/04/17 02:15:05;;;;;;;2.50;2.20;;;;;;;;;;5088512;28;20187;-60
2021/04/17 02:17:54;;;;;;;2.20;1.87;;;;;;;;;;5073500;28;20225;-60
2021/04/17 02:20:27;;;;;;;2.50;2.10;;;;;;;;;;5015495;28;20215;-60
2021/04/17 02:22:53;;;;;;;2.37;2.07;;;;;;;;;;5074702;28;20176;-61
2021/04/17 02:25:19;;;;;;;2.67;2.30;;;;;;;;;;5087173;28;20171;-60
2021/04/17 02:27:45;;;;;;;2.07;1.90;;;;;;;;;;5077745;28;20214;-60
2021/04/17 02:30:12;;;;;;;2.33;2.00;;;;;;;;;;5077255;28;20227;-60
2021/04/17 02:32:38;;;;;;;3.67;1.80;;;;;;;;;;5068295;28;20278;-60
2021/04/17 02:35:04;;;;;;;2.57;2.30;;;;;;;;;;5069766;28;20641;-60
2021/04/17 02:37:30;;;;;;;2.73;1.93;;;;;;;;;;5058772;28;20191;-60
2021/04/17 02:39:56;;;;;;;2.70;1.97;;;;;;;;;;5057430;28;20180;-60
2021/04/17 02:42:22;;;;;;;1.90;1.80;;;;;;;;;;5086630;28;20187;-60
2021/04/17 02:44:48;;;;;;;3.70;2.17;;;;;;;;;;5062760;28;20171;-60
2021/04/17 02:47:14;;;;;;;2.27;1.93;;;;;;;;;;5077051;28;20177;-60
2021/04/17 02:49:40;;;;;;;3.07;1.90;;;;;;;;;;5076390;28;20207;-61
2021/04/17 02:52:07;;;;;;;2.60;2.20;;;;;;;;;;5059534;28;20233;-60
2021/04/17 02:54:33;;;;;;;2.63;2.10;;;;;;;;;;5062012;28;20176;-59
2021/04/17 02:56:59;;;;;;;2.57;2.33;;;;;;;;;;5068258;28;20212;-60
2021/04/17 02:59:25;;;;;;;2.33;2.00;;;;;;;;;;5086906;28;20230;-60
2021/04/17 03:01:51;;;;;;;2.60;2.00;;;;;;;;;;5089760;28;20196;-60
2021/04/17 03:04:17;;;;;;;1.80;1.70;;;;;;;;;;5091554;28;20175;-60
2021/04/17 03:06:43;;;;;;;2.00;1.70;;;;;;;;;;5070625;28;20187;-60
2021/04/17 03:09:09;;;;;;;2.00;1.80;;;;;;;;;;5086036;28;20172;-60
2021/04/17 03:11:35;;;;;;;2.73;2.10;;;;;;;;;;5077864;28;20190;-62
2021/04/17 03:14:01;;;;;;;3.70;2.33;;;;;;;;;;5072598;28;20630;-60
2021/04/17 03:16:27;;;;;;;2.50;2.10;;;;;;;;;;5090189;28;20215;-60
2021/04/17 03:18:53;;;;;;;3.00;1.97;;;;;;;;;;5088668;28;20592;-59
2021/04/17 03:21:20;;;;;;;2.63;2.27;;;;;;;;;;5089736;28;20200;-59
2021/04/17 03:23:46;;;;;;;2.07;1.60;;;;;;;;;;5063111;28;20449;-61
2021/04/17 03:26:12;;;;;;;2.40;1.87;;;;;;;;;;5088223;28;20183;-60
2021/04/17 03:28:38;;;;;;;2.00;1.80;;;;;;;;;;5092250;28;20711;-60
2021/04/17 03:31:04;;;;;;;2.00;1.60;;;;;;;;;;5090803;28;20216;-59
2021/04/17 03:33:30;;;;;;;2.43;2.03;;;;;;;;;;5079642;28;20532;-59
2021/04/17 03:35:56;;;;;;;2.80;2.23;;;;;;;;;;5089762;28;20179;-59
2021/04/17 03:38:22;;;;;;;2.30;2.10;;;;;;;;;;5081263;28;20349;-60
2021/04/17 03:40:48;;;;;;;2.37;1.83;;;;;;;;;;5066853;28;20199;-60
2021/04/17 03:43:15;;;;;;;2.30;1.80;;;;;;;;;;5072777;28;20183;-60
2021/04/17 03:45:41;;;;;;;2.60;2.03;;;;;;;;;;5078462;28;20188;-61
2021/04/17 03:48:07;;;;;;;2.00;1.80;;;;;;;;;;5074283;28;20212;-60
2021/04/17 03:50:33;;;;;;;3.47;2.17;;;;;;;;;;5090035;28;20311;-59
2021/04/17 03:52:59;;;;;;;3.27;1.93;;;;;;;;;;5079691;28;20181;-60
2021/04/17 03:55:25;;;;;;;3.83;2.53;;;;;;;;;;5081816;28;20187;-60
2021/04/17 03:57:51;;;;;;;2.53;2.33;;;;;;;;;;5089950;28;20539;-60
2021/04/17 04:00:20;;;;;;;2.80;2.00;;;;;;;;;;5075151;28;20566;-59
2021/04/17 04:02:46;;;;;;;3.13;2.00;;;;;;;;;;5088110;28;20648;-62
2021/04/17 04:05:12;;;;;;;3.40;2.00;;;;;;;;;;5089380;28;20187;-59
2021/04/17 04:07:39;;;;;;;2.23;1.80;;;;;;;;;;5090530;28;20185;-60
2021/04/17 04:10:06;;;;;;;2.50;1.90;;;;;;;;;;5090693;28;20714;-60
2021/04/17 04:12:32;;;;;;;2.90;2.40;;;;;;;;;;5088576;28;20176;-62
2021/04/17 04:14:58;;;;;;;2.20;2.00;;;;;;;;;;5083674;28;20192;-59
2021/04/17 04:17:24;;;;;;;2.60;2.03;;;;;;;;;;5068869;28;20631;-59
2021/04/17 04:19:50;;;;;;;2.30;2.10;;;;;;;;;;5090077;28;20182;-60
2021/04/17 04:22:16;;;;;;;2.70;1.60;;;;;;;;;;5078739;28;20176;-62
2021/04/17 04:24:42;;;;;;;2.80;2.10;;;;;;;;;;5090523;28;20166;-60
2021/04/17 04:27:08;;;;;;;2.43;1.67;;;;;;;;;;5084239;28;20517;-60
2021/04/17 04:29:34;;;;;;;2.83;2.10;;;;;;;;;;5072462;28;20560;-60
2021/04/17 04:32:00;;;;;;;2.83;2.30;;;;;;;;;;5068355;28;20224;-60
2021/04/17 04:34:26;;;;;;;2.30;2.07;;;;;;;;;;5071376;28;20218;-62
2021/04/17 04:36:52;;;;;;;2.70;2.00;;;;;;;;;;5052701;28;20190;-59
2021/04/17 04:39:18;;;;;;;3.00;2.00;;;;;;;;;;5072171;28;20196;-60
2021/04/17 04:41:44;;;;;;;2.80;2.10;;;;;;;;;;5070668;28;20567;-60
2021/04/17 04:44:10;;;;;;;2.33;1.83;;;;;;;;;;5078471;28;20173;-60
2021/04/17 04:46:36;;;;;;;2.30;2.10;;;;;;;;;;5088334;28;20182;-62
2021/04/17 04:49:03;;;;;;;2.20;2.00;;;;;;;;;;5091061;28;20701;-60
2021/04/17 04:51:29;;;;;;;2.53;2.20;;;;;;;;;;5088430;28;20180;-60
2021/04/17 04:53:55;;;;;;;2.37;1.90;;;;;;;;;;5090856;28;20183;-59
2021/04/17 04:56:21;;;;;;;4.33;2.23;;;;;;;;;;5066772;28;20184;-60
2021/04/17 04:58:47;;;;;;;2.70;2.03;;;;;;;;;;5069598;28;20176;-59
2021/04/17 05:01:13;;;;;;;2.13;1.93;;;;;;;;;;5073348;28;20666;-59
2021/04/17 05:03:40;;;;;;;3.53;1.97;;;;;;;;;;5071066;28;20202;-60
2021/04/17 05:06:06;;;;;;;2.50;1.97;;;;;;;;;;5076694;28;20208;-60
2021/04/17 05:08:32;;;;;;;3.27;2.30;;;;;;;;;;5070768;28;20237;-60
2021/04/17 05:10:58;;;;;;;2.53;2.17;;;;;;;;;;5085256;28;20577;-59
2021/04/17 05:13:24;;;;;;;4.07;2.03;;;;;;;;;;5084877;28;20548;-60
2021/04/17 05:15:50;;;;;;;2.50;2.10;;;;;;;;;;5085811;28;20175;-60
2021/04/17 05:18:16;;;;;;;3.07;1.80;;;;;;;;;;5086859;28;20190;-59
2021/04/17 05:20:42;;;;;;;2.20;1.90;;;;;;;;;;5084612;28;20210;-60
2021/04/17 05:23:08;;;;;;;3.03;2.20;;;;;;;;;;5069552;28;20698;-59
2021/04/17 05:25:34;;;;;;;2.60;2.40;;;;;;;;;;5082710;28;20195;-59
2021/04/17 05:28:00;;;;;;;3.27;2.17;;;;;;;;;;5089235;28;20228;-59
2021/04/17 05:30:26;;;;;;;2.60;1.83;;;;;;;;;;5066564;28;20251;-60
2021/04/17 05:32:52;;;;;;;2.40;1.83;;;;;;;;;;5065428;28;20636;-60
2021/04/17 05:35:18;;;;;;;3.33;2.80;;;;;;;;;;5087709;28;20206;-60
2021/04/17 05:37:44;;;;;;;2.20;1.80;;;;;;;;;;5074885;28;20595;-60
2021/04/17 05:40:11;;;;;;;2.27;2.07;;;;;;;;;;5086552;28;20230;-60
2021/04/17 05:42:37;;;;;;;2.73;2.00;;;;;;;;;;5062611;28;20191;-59
2021/04/17 05:45:03;;;;;;;2.53;1.93;;;;;;;;;;5061463;28;20168;-60
2021/04/17 05:47:29;;;;;;;2.47;2.17;;;;;;;;;;5084568;28;20184;-59
2021/04/17 05:49:55;;;;;;;3.47;2.17;;;;;;;;;;5081785;28;20215;-59
2021/04/17 05:52:21;;;;;;;2.57;2.23;;;;;;;;;;5086357;28;20191;-60
2021/04/17 05:54:47;;;;;;;2.97;2.17;;;;;;;;;;5057646;28;20175;-60
2021/04/17 05:57:13;;;;;;;3.20;2.23;;;;;;;;;;5082666;28;20515;-60
2021/04/17 05:59:40;;;;;;;1.80;1.70;;;;;;;;;;5077193;28;20731;-60
2021/04/17 06:02:07;;;;;;;4.70;2.33;;;;;;;;;;5059247;28;20517;-61
2021/04/17 06:04:33;;;;;;;2.63;2.10;;;;;;;;;;5086961;28;20187;-60
2021/04/17 06:06:59;;;;;;;2.53;2.07;;;;;;;;;;5071419;28;20180;-60
2021/04/17 06:09:26;;;;;;;3.33;2.43;;;;;;;;;;5076750;28;20181;-60
2021/04/17 06:11:52;;;;;;;3.40;2.60;;;;;;;;;;5086925;28;20715;-60
2021/04/17 06:14:18;;;;;;;3.20;2.30;;;;;;;;;;5063682;28;20189;-59
2021/04/17 06:16:44;;;;;;;4.43;2.53;;;;;;;;;;5090110;28;20179;-60
2021/04/17 06:19:10;;;;;;;3.03;2.10;;;;;;;;;;5089762;28;20245;-60
2021/04/17 06:21:36;;;;;;;4.40;2.50;;;;;;;;;;5071921;28;20204;-60
2021/04/17 06:24:03;;;;;;;4.67;2.10;;;;;;;;;;5090315;28;20211;-60
2021/04/17 06:26:29;;;;;;;3.70;2.27;;;;;;;;;;5071491;28;20179;-60
2021/04/17 06:28:55;;;;;;;3.70;2.47;;;;;;;;;;5072017;28;20187;-60
2021/04/17 06:31:21;;;;;;;4.67;2.37;;;;;;;;;;5070247;28;20276;-60
2021/04/17 06:33:47;;;;;;;4.13;2.30;;;;;;;;;;5080851;28;20180;-60
2021/04/17 06:36:13;;;;;;;2.50;1.97;;;;;;;;;;5088249;28;20190;-60
2021/04/17 06:38:39;;;;;;;4.23;2.63;;;;;;;;;;5083754;28;20176;-61
2021/04/17 06:41:09;;;;;;;4.50;2.40;;;;;;;;;;5081548;28;20942;-62
2021/04/17 06:43:35;;;;;;;5.07;2.50;;;;;;;;;;5082782;28;20229;-60
2021/04/17 06:46:02;;;;;;;3.40;2.50;;;;;;;;;;5089410;28;20254;-60
2021/04/17 06:48:29;;;;;;;3.90;2.40;;;;;;;;;;5095712;28;20184;-61
2021/04/17 06:50:55;;;;;;;4.53;2.50;;;;;;;;;;5074417;28;20206;-60
2021/04/17 06:53:21;;;;;;;4.27;3.43;;;;;;;;;;5092405;28;20216;-60
2021/04/17 06:55:51;;;;;;;2.67;2.47;;;;;;;;;;5091321;28;20890;-60
2021/04/17 06:58:18;;;;;;;2.87;2.47;;;;;;;;;;5089175;28;20180;-60
2021/04/17 07:00:45;;;;;;;3.07;2.50;;;;;;;;;;5065144;28;20670;-60
2021/04/17 07:03:11;;;;;;;4.30;2.67;;;;;;;;;;5084724;28;20225;-59
2021/04/17 07:05:37;;;;;;;3.70;3.03;;;;;;;;;;5070248;28;20267;-60
2021/04/17 07:08:03;;;;;;;4.23;2.73;;;;;;;;;;5081736;28;20234;-61
2021/04/17 07:10:29;;;;;;;4.50;2.87;;;;;;;;;;5089526;28;20184;-60
2021/04/17 07:13:07;;;;;;;4.00;2.50;;;;;;;;;;5077763;28;20181;-60
2021/04/17 07:15:34;;;;;;;3.30;2.67;;;;;;;;;;5082241;28;20192;-61
2021/04/17 07:18:00;;;;;;;3.87;2.50;;;;;;;;;;5082762;28;20215;-60
2021/04/17 07:20:28;;;;;;;2.87;2.57;;;;;;;;;;5082044;28;20659;-60
2021/04/17 07:22:54;;;;;;;3.47;2.80;;;;;;;;;;5085764;28;20246;-61
2021/04/17 07:25:20;;;;;;;4.47;3.00;;;;;;;;;;5067786;28;20183;-61
2021/04/17 07:27:50;;;;;;;3.73;2.67;;;;;;;;;;5069020;28;20188;-60
2021/04/17 07:30:16;;;;;;;2.83;2.50;;;;;;;;;;5064473;28;20747;-60
2021/04/17 07:33:10;;;;;;;3.80;2.97;;;;;;;;;;5074825;28;20164;-60
2021/04/17 07:35:42;;;;;;;5.10;3.23;;;;;;;;;;5077135;28;20188;-60
2021/04/17 07:38:11;;;;;;;4.77;3.23;;;;;;;;;;5086997;28;20538;-60
2021/04/17 07:40:37;;;;;;;5.03;2.73;;;;;;;;;;5083941;28;20277;-62
2021/04/17 07:43:03;;;;;;;4.73;3.13;;;;;;;;;;5080483;28;20699;-60
2021/04/17 07:45:31;;;;;;;6.90;3.57;;;;;;;;;;5063169;28;20181;-60
2021/04/17 07:47:59;;;;;;;4.40;3.20;;;;;;;;;;5053346;28;20703;-61
2021/04/17 07:50:36;;;;;;;4.03;3.37;;;;;;;;;;5085765;28;20654;-60
2021/04/17 07:53:22;;;;;;;5.88;4.13;;;;;;;;;;5081934;28;20871;-60
2021/04/17 07:55:48;;;;;;;5.00;3.90;;;;;;;;;;5082205;28;20214;-59
2021/04/17 07:58:14;;;;;;;7.53;4.10;;;;;;;;;;5086599;28;20176;-60
2021/04/17 08:00:40;;;;;;;6.53;3.90;;;;;;;;;;5084834;28;20239;-59
2021/04/17 08:03:07;;;;;;;6.73;4.40;;;;;;;;;;5083522;28;20192;-59
2021/04/17 08:05:33;;;;;;;6.00;3.63;;;;;;;;;;5086266;28;20649;-61
2021/04/17 08:07:59;;;;;;;6.10;4.50;;;;;;;;;;5080159;28;20183;-60
2021/04/17 08:10:27;;;;;;;4.00;3.17;;;;;;;;;;5063680;28;20184;-60
2021/04/17 08:12:57;;;;;;;5.67;3.40;;;;;;;;;;5079749;28;20184;-59
2021/04/17 08:15:23;;;;;;;4.03;3.33;;;;;;;;;;5082899;28;20700;-60
2021/04/17 08:17:50;;;;;;;8.37;3.60;;;;;;;;;;5091459;28;20266;-63
2021/04/17 08:20:17;;;;;;;17.33;4.00;;;;;;;;;;5072583;28;20214;-60
2021/04/17 08:22:44;;;;;;;9.03;3.80;;;;;;;;;;5073294;28;21011;-60
2021/04/17 08:25:11;;;;;;;9.77;4.23;;;;;;;;;;5072884;28;20222;-61
2021/04/17 08:27:37;;;;;;;13.57;3.90;;;;;;;;;;5090935;28;20250;-63
2021/04/17 08:30:09;;;;;;;6.47;3.47;;;;;;;;;;5069262;28;598622;-59
2021/04/17 08:32:36;;;;;;;7.67;4.10;;;;;;;;;;5092756;28;20187;-61
2021/04/17 08:35:08;;;;;;;15.50;3.80;;;;;;;;;;5071114;28;20200;-62
2021/04/17 08:37:35;;;;;;;10.53;4.47;;;;;;;;;;5087784;28;20188;-61
2021/04/17 08:40:04;;;;;;;7.87;3.83;;;;;;;;;;5088199;28;20200;-60
2021/04/17 08:42:50;;;;;;;5.63;4.03;;;;;;;;;;5091719;28;20688;-61
2021/04/17 08:45:17;;;;;;;6.03;3.67;;;;;;;;;;5090378;28;20172;-60
2021/04/17 08:47:46;;;;;;;4.03;3.17;;;;;;;;;;5088864;28;20172;-60
2021/04/17 08:50:30;;;;;;;4.77;3.47;;;;;;;;;;5080984;28;20199;-60
2021/04/17 08:53:18;;;;;;;7.90;3.63;;;;;;;;;;5083851;28;20571;-63
2021/04/17 08:55:45;;;;;;;5.57;2.60;;;;;;;;;;5074578;28;20171;-60
2021/04/17 08:58:19;;;;;;;4.70;3.37;;;;;;;;;;5076246;28;20184;-61
2021/04/17 09:01:05;;;;;;;8.50;2.97;;;;;;;;;;5073538;28;20208;-60
2021/04/17 09:03:48;;;;;;;6.77;3.17;;;;;;;;;;5065746;28;20172;-60
2021/04/17 09:06:23;;;;;;;5.07;3.20;;;;;;;;;;5072179;28;20198;-60
2021/04/17 09:09:08;;;;;;;4.40;3.40;;;;;;;;;;5077977;28;20176;-60
2021/04/17 09:11:35;;;;;;;8.97;4.47;;;;;;;;;;5090351;28;20234;-61
2021/04/17 09:14:01;;;;;;;4.73;3.33;;;;;;;;;;5070959;28;20271;-59
2021/04/17 09:16:38;;;;;;;4.30;2.63;;;;;;;;;;5090802;28;20172;-60
2021/04/17 09:19:04;;;;;;;4.03;3.07;;;;;;;;;;5072852;28;20180;-60
2021/04/17 09:21:30;;;;;;;5.60;3.10;;;;;;;;;;5072308;28;20302;-62
2021/04/17 09:23:56;;;;;;;3.67;2.70;;;;;;;;;;5073753;28;20180;-60
2021/04/17 09:26:31;;;;;;;4.67;3.10;;;;;;;;;;5072204;28;20168;-60
2021/04/17 09:28:58;;;;;;;5.33;2.70;;;;;;;;;;5091467;28;20225;-60
2021/04/17 09:31:24;;;;;;;7.00;3.30;;;;;;;;;;5074852;28;20212;-60
2021/04/17 09:34:03;;;;;;;5.73;3.60;;;;;;;;;;5091817;28;20210;-60
2021/04/17 09:36:30;;;;;;;4.37;3.07;;;;;;;;;;5058519;28;20179;-62
2021/04/17 09:38:56;;;;;;;4.63;3.27;;;;;;;;;;5085800;28;20237;-60
2021/04/17 09:41:22;;;;;;;5.30;3.17;;;;;;;;;;5071212;28;20196;-62
2021/04/17 09:43:56;;;;;;;4.83;3.10;;;;;;;;;;5085732;28;20230;-61
2021/04/17 09:46:23;;;;;;;6.60;3.40;;;;;;;;;;5089319;28;20653;-60
2021/04/17 09:48:49;;;;;;;4.53;3.27;;;;;;;;;;5080364;28;20193;-61
2021/04/17 09:51:23;;;;;;;6.73;2.80;;;;;;;;;;5065998;28;20187;-61
2021/04/17 09:53:50;;;;;;;5.80;3.07;;;;;;;;;;5090994;28;20187;-61
2021/04/17 09:56:33;;;;;;;4.47;2.90;;;;;;;;;;5072166;28;20265;-59
2021/04/17 09:59:05;;;;;;;6.10;3.03;;;;;;;;;;5090992;28;20650;-59
2021/04/17 10:01:34;;;;;;;4.17;2.70;;;;;;;;;;5072437;28;20203;-60
2021/04/17 10:04:01;;;;;;;5.33;2.80;;;;;;;;;;5073540;28;20187;-61
2021/04/17 10:06:29;;;;;;;3.23;2.60;;;;;;;;;;5089457;28;20176;-60
2021/04/17 10:09:10;;;;;;;4.77;2.90;;;;;;;;;;5072274;28;20687;-61
2021/04/17 10:11:38;;;;;;;3.83;3.20;;;;;;;;;;5091031;28;20186;-61
2021/04/17 10:14:05;;;;;;;4.47;2.60;;;;;;;;;;5090785;28;20170;-60
2021/04/17 10:16:32;;;;;;;12.70;3.10;;;;;;;;;;5088291;28;20202;-61
2021/04/17 10:18:58;;;;;;;5.27;2.97;;;;;;;;;;5066266;28;20290;-60
2021/04/17 10:21:25;;;;;;;5.57;2.57;;;;;;;;;;5088406;28;20715;-60
2021/04/17 10:24:10;;;;;;;4.27;3.00;;;;;;;;;;5089413;28;20164;-62
2021/04/17 10:26:47;;;;;;;4.30;2.90;;;;;;;;;;5086735;28;20270;-61
2021/04/17 10:29:13;;;;;;;5.23;2.70;;;;;;;;;;5085014;28;20241;-59
2021/04/17 10:31:39;;;;;;;4.57;2.73;;;;;;;;;;5086466;28;20273;-60
2021/04/17 10:34:08;;;;;;;6.43;2.77;;;;;;;;;;5089385;28;20183;-60
2021/04/17 10:36:34;;;;;;;4.30;3.20;;;;;;;;;;5067849;28;20677;-60
2021/04/17 10:39:07;;;;;;;5.03;2.97;;;;;;;;;;5069739;28;20301;-60
2021/04/17 10:41:33;;;;;;;4.77;3.23;;;;;;;;;;5089055;28;20211;-61
2021/04/17 10:44:19;;;;;;;5.63;2.73;;;;;;;;;;5090356;28;20195;-61
2021/04/17 10:46:46;;;;;;;5.60;2.87;;;;;;;;;;5075933;28;20176;-60
2021/04/17 10:49:25;;;;;;;3.47;2.67;;;;;;;;;;5053168;28;20199;-60
2021/04/17 10:51:51;;;;;;;7.67;2.77;;;;;;;;;;5072516;28;20182;-61
2021/04/17 10:54:17;;;;;;;4.93;2.40;;;;;;;;;;5088504;28;20508;-60
2021/04/17 10:56:55;;;;;;;3.97;2.33;;;;;;;;;;5088311;28;20183;-60
2021/04/17 10:59:21;;;;;;;4.20;2.00;;;;;;;;;;5070699;28;20178;-61
2021/04/17 11:01:47;;;;;;;4.47;2.30;;;;;;;;;;5088017;28;20219;-60
2021/04/17 11:04:13;;;;;;;4.63;2.10;;;;;;;;;;5083965;28;20172;-60
2021/04/17 11:06:45;;;;;;;5.27;2.63;;;;;;;;;;5070926;28;20186;-61
2021/04/17 11:09:18;;;;;;;3.17;2.47;;;;;;;;;;5070076;28;20599;-62
2021/04/17 11:11:51;;;;;;;2.50;2.27;;;;;;;;;;5068590;28;20707;-60
2021/04/17 11:14:20;;;;;;;4.03;2.57;;;;;;;;;;5055539;28;20556;-60
2021/04/17 11:16:53;;;;;;;3.10;2.40;;;;;;;;;;5071130;28;20237;-61
2021/04/17 11:19:37;;;;;;;3.00;2.70;;;;;;;;;;5088965;28;20606;-61
2021/04/17 11:22:10;;;;;;;3.43;2.60;;;;;;;;;;5050299;28;20212;-60
2021/04/17 11:24:40;;;;;;;4.80;2.97;;;;;;;;;;5079061;28;20179;-62
2021/04/17 11:27:06;;;;;;;4.83;2.80;;;;;;;;;;5090973;28;20187;-61
2021/04/17 11:29:33;;;;;;;4.13;3.20;;;;;;;;;;5074309;28;20429;-60
2021/04/17 11:31:59;;;;;;;3.63;2.37;;;;;;;;;;5085742;28;20305;-60
2021/04/17 11:34:25;;;;;;;5.53;2.90;;;;;;;;;;5069560;28;20183;-60
2021/04/17 11:36:51;;;;;;;2.83;2.50;;;;;;;;;;5072667;28;20184;-61
2021/04/17 11:39:17;;;;;;;3.60;2.80;;;;;;;;;;5091668;28;20171;-61
2021/04/17 11:41:44;;;;;;;5.17;2.80;;;;;;;;;;5092130;28;20222;-63
2021/04/17 11:44:10;;;;;;;4.43;2.80;;;;;;;;;;5085332;28;20176;-60
2021/04/17 11:46:37;;;;;;;6.63;3.30;;;;;;;;;;5074101;28;20233;-61
2021/04/17 11:49:03;;;;;;;5.90;3.10;;;;;;;;;;5074314;28;20202;-60
2021/04/17 11:51:29;;;;;;;4.27;3.03;;;;;;;;;;5091344;28;20176;-62
2021/04/17 11:53:55;;;;;;;4.47;3.30;;;;;;;;;;5071583;28;20187;-60
2021/04/17 11:56:21;;;;;;;3.97;3.53;;;;;;;;;;5077668;28;20545;-61
2021/04/17 11:58:47;;;;;;;4.00;2.70;;;;;;;;;;5063382;28;20662;-61
2021/04/17 12:01:13;;;;;;;5.20;2.73;;;;;;;;;;5091960;28;20203;-60
2021/04/17 12:03:40;;;;;;;3.77;2.87;;;;;;;;;;5091174;28;20576;-60
2021/04/17 12:06:07;;;;;;;4.57;3.10;;;;;;;;;;5089586;28;20172;-60
2021/04/17 12:08:33;;;;;;;6.40;2.70;;;;;;;;;;5091700;28;20186;-60
2021/04/17 12:11:02;;;;;;;3.93;2.97;;;;;;;;;;5091198;28;20179;-60
2021/04/17 12:13:28;;;;;;;3.63;2.60;;;;;;;;;;5092111;28;20168;-59
2021/04/17 12:15:54;;;;;;;3.87;2.70;;;;;;;;;;5092443;28;20179;-62
2021/04/17 12:18:20;;;;;;;3.60;2.63;;;;;;;;;;5093000;28;20180;-60
2021/04/17 12:20:46;;;;;;;4.30;2.60;;;;;;;;;;5089475;28;20203;-61
2021/04/17 12:23:13;;;;;;;4.17;2.60;;;;;;;;;;5078537;28;20168;-60
2021/04/17 12:25:39;;;;;;;4.77;2.60;;;;;;;;;;5083522;28;20185;-62
2021/04/17 12:28:05;;;;;;;3.67;2.57;;;;;;;;;;5088831;28;20187;-60
2021/04/17 12:30:31;;;;;;;5.67;2.57;;;;;;;;;;5086317;28;20923;-60
2021/04/17 12:32:57;;;;;;;4.43;2.67;;;;;;;;;;5092060;28;20164;-59
2021/04/17 12:35:24;;;;;;;6.70;2.40;;;;;;;;;;5071149;28;20207;-59
2021/04/17 12:37:50;;;;;;;8.40;2.53;;;;;;;;;;5091701;28;20179;-60
2021/04/17 12:40:16;;;;;;;11.77;2.87;;;;;;;;;;5089874;28;20175;-61
2021/04/17 12:42:43;;;;;;;4.80;2.70;;;;;;;;;;5068751;28;20185;-60
2021/04/17 12:45:10;;;;;;;5.27;2.70;;;;;;;;;;5091206;28;20191;-60
2021/04/17 12:47:37;;;;;;;5.67;2.60;;;;;;;;;;5091016;28;20191;-61
2021/04/17 12:50:04;;;;;;;9.33;2.50;;;;;;;;;;5088173;28;20694;-58
2021/04/17 12:52:30;;;;;;;5.47;2.70;;;;;;;;;;5089179;28;20527;-59
2021/04/17 12:54:56;;;;;;;7.80;2.57;;;;;;;;;;5068892;28;20283;-62
2021/04/17 12:57:22;;;;;;;7.20;2.43;;;;;;;;;;5091242;28;20696;-59
2021/04/17 12:59:48;;;;;;;3.70;2.00;;;;;;;;;;5087569;28;20651;-60
2021/04/17 13:02:14;;;;;;;4.67;2.20;;;;;;;;;;5086782;28;20204;-61
2021/04/17 13:04:40;;;;;;;7.10;2.20;;;;;;;;;;5088725;28;20176;-60
2021/04/17 13:07:06;;;;;;;23.00;4.23;;;;;;;;;;5081640;28;20176;-61
2021/04/17 13:09:32;;;;;;;36.60;7.03;;;;;;;;;;5086360;28;20184;-59
2021/04/17 13:11:58;;;;;;;30.23;5.03;;;;;;;;;;5089062;28;20270;-60
2021/04/17 13:14:25;;;;;;;20.63;5.10;;;;;;;;;;5088438;28;20245;-60
2021/04/17 13:16:51;;;;;;;17.53;3.03;;;;;;;;;;5089265;28;20196;-60
2021/04/17 13:19:18;;;;;;;11.40;2.47;;;;;;;;;;5061847;28;20273;-59
2021/04/17 13:21:44;;;;;;;9.90;3.60;;;;;;;;;;5086483;28;20223;-59
2021/04/17 13:24:10;;;;;;;4.60;2.27;;;;;;;;;;5090386;28;20176;-59
2021/04/17 13:26:37;;;;;;;3.47;2.43;;;;;;;;;;5081466;28;20246;-59
2021/04/17 13:29:03;;;;;;;6.87;2.53;;;;;;;;;;5080925;28;20217;-60
2021/04/17 13:31:29;;;;;;;59.00;8.57;;;;;;;;;;5088759;28;20324;-61
2021/04/17 13:33:55;;;;;;;40.57;5.97;;;;;;;;;;5072330;28;20184;-59
2021/04/17 13:36:21;;;;;;;16.00;3.27;;;;;;;;;;5089627;28;20211;-59
2021/04/17 13:38:47;;;;;;;13.77;3.30;;;;;;;;;;5090772;28;20172;-59
2021/04/17 13:41:13;;;;;;;10.43;2.83;;;;;;;;;;5089248;28;20565;-59
2021/04/17 13:43:39;;;;;;;9.13;2.63;;;;;;;;;;5067087;28;20180;-58
2021/04/17 13:46:06;;;;;;;69.03;7.67;;;;;;;;;;5082271;28;20180;-59
2021/04/17 13:48:32;;;;;;;9.27;3.10;;;;;;;;;;5090624;28;20590;-59
2021/04/17 13:50:58;;;;;;;11.33;3.40;;;;;;;;;;5047400;28;20200;-59
2021/04/17 13:53:24;;;;;;;24.23;4.60;;;;;;;;;;5090683;28;20270;-60
2021/04/17 13:55:50;;;;;;;3.77;2.27;;;;;;;;;;5089784;28;20190;-62
2021/04/17 13:58:16;;;;;;;4.33;2.40;;;;;;;;;;5090788;28;20176;-59
2021/04/17 14:00:43;;;;;;;6.40;3.23;;;;;;;;;;5088092;28;20253;-59
2021/04/17 14:03:09;;;;;;;3.67;2.37;;;;;;;;;;5085746;28;20176;-59
2021/04/17 14:05:37;;;;;;;8.23;2.67;;;;;;;;;;5090256;28;20191;-59
2021/04/17 14:08:04;;;;;;;5.20;2.83;;;;;;;;;;5091430;28;20203;-59
2021/04/17 14:10:30;;;;;;;4.27;2.30;;;;;;;;;;5089375;28;20234;-58
2021/04/17 14:12:56;;;;;;;5.33;2.57;;;;;;;;;;5089259;28;20184;-59
2021/04/17 14:15:22;;;;;;;8.73;3.17;;;;;;;;;;5067387;28;20631;-60
2021/04/17 14:17:48;;;;;;;4.53;2.70;;;;;;;;;;5070825;28;20183;-58
2021/04/17 14:20:14;;;;;;;4.67;2.50;;;;;;;;;;5075396;28;20569;-58
2021/04/17 14:22:40;;;;;;;13.35;3.47;;;;;;;;;;5090672;28;20409;-58
2021/04/17 14:25:06;;;;;;;5.77;2.90;;;;;;;;;;5089832;28;20176;-59
2021/04/17 14:27:32;;;;;;;6.67;3.17;;;;;;;;;;5058834;28;20180;-59
2021/04/17 14:29:58;;;;;;;7.10;3.20;;;;;;;;;;5056389;28;20408;-61
2021/04/17 14:32:25;;;;;;;8.40;2.80;;;;;;;;;;5070182;28;20171;-62
2021/04/17 14:34:51;;;;;;;3.00;2.17;;;;;;;;;;5076752;28;20543;-62
2021/04/17 14:37:17;;;;;;;8.27;2.80;;;;;;;;;;5079352;28;20172;-62
2021/04/17 14:39:43;;;;;;;7.23;2.87;;;;;;;;;;5078764;28;20206;-60
2021/04/17 14:42:09;;;;;;;23.53;4.23;;;;;;;;;;5070078;28;20566;-60
2021/04/17 14:44:37;;;;;;;2.67;2.47;;;;;;;;;;5081441;28;20204;-60
2021/04/17 14:47:03;;;;;;;5.00;2.60;;;;;;;;;;5088268;28;20254;-60